Latest Weather Observations for Oakey

IDQ60901

Issued at 10:31 am EST Sunday 16 June 2019 (issued every 10 minutes, with the page automatically refreshed every 10 minutes)

About weather observations | Map of Brisbane area stations | Latest observations for Brisbane area | Other Formats
Station Details ID: 041359 Name: OAKEY AERO Lat: -27.40 Lon: 151.74 Height: 405.69 m
Data from the previous 72 hours. | See also: Recent months at Oakey
Date/Time
EST
Temp
°C
App
Temp
°C
Dew
Point
°C
Rel
Hum
%
Delta-T
°C
Wind Press
QNH
hPa
Press
MSL
hPa
Rain since
9am
mm
Dir  Spd
km/h
Gust
km/h
Spd
kts
Gust
kts
16/10:30am 17.8 19.7 15.8 88 1.2 CALM 0 0 0 0 1020.2 1020.2 0.0
16/10:06am 16.4 18.1 15.3 93 0.7 CALM 0 0 0 0 1020.5 1020.5 0.0
16/10:00am 16.1 17.7 15.0 93 0.6 CALM 0 0 0 0 1020.6 1020.6 0.0
16/09:30am 15.2 15.7 14.9 98 0.2 SSW 6 7 3 4 1020.6 1020.6 0.0
16/09:00am 14.1 13.6 13.8 98 0.2 SSW 9 11 5 6 1020.6 1020.6 2.0
16/08:30am 13.4 14.4 13.1 98 0.2 CALM 0 0 0 0 1020.3 1020.3 2.0
16/08:00am 12.9 13.3 12.6 98 0.2 NNW 2 7 1 4 1020.2 1020.2 2.0
16/07:30am 12.7 11.7 12.4 98 0.2 ENE 9 13 5 7 1019.9 1019.9 1.6
16/07:00am 12.7 12.3 12.4 98 0.2 WSW 6 7 3 4 1019.9 1019.9 0.6
16/06:30am 12.5 11.5 12.2 98 0.2 NNE 9 15 5 8 1019.5 1019.4 0.6
16/06:00am 12.0 10.8 11.5 97 0.3 NE 9 11 5 6 1018.9 1018.8 0.4
16/05:30am 12.0 11.2 11.2 95 0.4 E 6 9 3 5 1018.9 1018.8 0.0
16/05:00am 12.0 12.2 10.7 92 0.7 CALM 0 6 0 3 1018.6 1018.5 0.0
16/04:30am 11.5 11.2 10.1 91 0.7 N 2 7 1 4 1018.4 1018.3 0.0
16/04:00am 11.5 9.9 10.1 91 0.7 NE 9 9 5 5 1018.4 1018.3 0.0
16/03:30am 11.3 9.7 10.2 93 0.6 E 9 11 5 6 1018.4 1018.3 0.0
16/03:00am 11.2 9.5 10.0 92 0.6 SE 9 11 5 6 1018.5 1018.4 0.0
16/02:30am 11.4 10.2 10.3 93 0.6 ENE 7 9 4 5 1018.6 1018.5 0.0
16/02:00am 10.5 9.6 9.1 91 0.7 E 4 13 2 7 1018.5 1018.4 0.0
16/01:30am 10.0 8.5 8.4 90 0.8 ENE 6 15 3 8 1018.4 1018.3 0.0
16/01:29am 9.9 8.7 8.2 89 0.8 NE 4 15 2 8 1018.5 1018.4 0.0
16/01:15am 11.1 10.6 9.5 90 0.8 N 2 6 1 3 1018.9 1018.8 0.0
16/01:00am 10.8 10.1 8.7 87 1.1 NNW 2 7 1 4 1018.9 1018.8 0.0
16/12:30am 11.8 10.0 9.5 86 1.2 NE 9 11 5 6 1018.8 1018.7 0.0
16/12:00am 12.1 10.7 9.5 84 1.3 S 7 9 4 5 1018.9 1018.8 0.0
 
Date/Time
EST
Temp
°C
App
Temp
°C
Dew
Point
°C
Rel
Hum
%
Delta-T
°C
Wind Press
QNH
hPa
Press
MSL
hPa
Rain since
9am
mm
Dir  Spd
km/h
Gust
km/h
Spd
kts
Gust
kts
15/11:30pm 12.3 12.3 9.9 85 1.3 CALM 0 0 0 0 1019.2 1019.1 0.0
15/11:00pm 13.2 13.4 10.4 83 1.5 CALM 0 0 0 0 1019.3 1019.2 0.0
15/10:30pm 13.1 12.5 10.3 83 1.5 WSW 4 9 2 5 1019.4 1019.3 0.0
15/10:00pm 13.9 12.9 10.9 82 1.6 WSW 7 9 4 5 1019.5 1019.4 0.0
15/09:30pm 13.2 13.1 9.6 79 1.9 CALM 0 0 0 0 1019.6 1019.5 0.0
15/09:00pm 13.6 13.5 9.3 75 2.2 CALM 0 0 0 0 1019.4 1019.3 0.0
15/08:30pm 13.9 13.7 9.1 73 2.5 CALM 0 4 0 2 1019.2 1019.1 0.0
15/08:00pm 14.4 12.8 8.6 68 3.0 E 7 9 4 5 1019.0 1018.9 0.0
15/07:30pm 16.3 15.1 10.4 68 3.2 S 7 9 4 5 1018.7 1018.6 0.0
15/07:00pm 17.0 15.0 10.1 64 3.7 WSW 11 11 6 6 1018.5 1018.4 0.0
15/06:30pm 17.8 15.9 9.2 57 4.6 W 9 11 5 6 1018.2 1018.1 0.0
15/06:00pm 19.2 17.5 9.7 54 5.1 WSW 9 11 5 6 1017.8 1017.8 0.0
15/05:30pm 20.0 18.1 9.0 49 5.9 W 9 11 5 6 1017.5 1017.4 0.0
15/05:00pm 22.3 19.4 9.8 45 6.9 W 15 19 8 10 1017.1 1017.0 0.0
15/04:30pm 23.8 20.6 10.1 42 7.7 W 17 20 9 11 1017.0 1016.9 0.0
15/04:00pm 24.0 21.3 10.3 42 7.7 W 15 20 8 11 1016.8 1016.7 0.0
15/03:30pm 23.8 20.3 10.1 42 7.7 W 19 24 10 13 1016.8 1016.7 0.0
15/03:00pm 24.1 20.5 10.0 41 7.9 WNW 19 28 10 15 1016.8 1016.7 0.0
15/02:30pm 25.1 22.1 10.6 40 8.2 W 17 24 9 13 1016.8 1016.7 0.0
15/02:00pm 24.4 20.4 10.3 41 7.9 WNW 22 28 12 15 1017.0 1016.9 0.0
15/01:30pm 24.9 21.5 10.4 40 8.2 WNW 19 32 10 17 1017.1 1017.0 0.0
15/01:00pm 24.7 21.8 10.9 42 7.9 WNW 17 22 9 12 1017.4 1017.3 0.0
15/12:30pm 24.7 21.2 10.9 42 7.9 W 20 30 11 16 1017.9 1017.9 0.0
15/12:00pm 23.6 20.9 10.3 43 7.4 WNW 15 26 8 14 1018.5 1018.4 0.0
15/11:30am 23.5 21.0 11.2 46 7.0 W 15 26 8 14 1019.0 1018.9 0.0
15/11:00am 23.3 21.0 11.7 48 6.6 WNW 15 22 8 12 1019.5 1019.4 0.0
15/10:30am 22.1 21.7 12.4 54 5.6 WSW 6 9 3 5 1019.9 1019.9 0.0
15/10:00am 20.9 20.5 12.3 58 4.9 NW 6 13 3 7 1020.2 1020.2 0.0
15/09:30am 19.7 20.6 12.9 65 3.9 CALM 0 0 0 0 1020.3 1020.3 0.0
15/09:00am 18.0 18.0 13.5 75 2.6 E 6 7 3 4 1020.4 1020.4 0.0
15/08:30am 15.1 14.8 12.8 86 1.3 SE 6 9 3 5 1020.2 1020.2 0.0
15/08:00am 12.4 13.0 11.9 97 0.3 CALM 0 6 0 3 1020.0 1020.0 0.0
15/07:30am 10.8 9.9 10.5 98 0.2 E 6 7 3 4 1019.5 1019.4 0.0
15/07:00am 9.2 7.8 8.9 98 0.1 SSE 6 9 3 5 1019.4 1019.3 0.0
15/06:30am 8.6 8.2 8.3 98 0.1 CALM 0 2 0 1 1019.1 1019.0 0.0
15/06:00am 9.4 8.1 9.1 98 0.2 E 6 11 3 6 1018.5 1018.4 0.0
15/05:30am 9.3 7.9 9.0 98 0.2 SSW 6 7 3 4 1018.7 1018.6 0.0
15/05:00am 9.5 8.5 9.0 97 0.3 E 4 9 2 5 1018.3 1018.2 0.0
15/04:30am 10.0 9.6 9.7 98 0.2 E 2 7 1 4 1018.2 1018.1 0.0
15/04:00am 9.7 8.7 8.8 94 0.5 SSW 4 7 2 4 1018.2 1018.1 0.0
15/03:30am 10.8 9.8 10.2 96 0.3 ESE 6 13 3 7 1017.8 1017.8 0.0
15/03:00am 10.3 9.7 8.9 91 0.7 ENE 2 7 1 4 1017.9 1017.9 0.0
15/02:30am 10.6 10.6 9.8 95 0.4 CALM 0 0 0 0 1018.0 1018.0 0.0
15/02:00am 11.3 11.4 10.2 93 0.6 CALM 0 0 0 0 1018.3 1018.2 0.0
15/01:30am 11.2 10.1 10.0 92 0.6 SSE 6 7 3 4 1018.5 1018.4 0.0
15/01:00am 10.4 10.0 8.3 87 1.0 CALM 0 0 0 0 1018.7 1018.6 0.0
15/12:30am 11.7 9.6 9.8 88 1.0 ESE 11 13 6 7 1018.5 1018.4 0.0
15/12:00am 11.5 9.0 9.8 89 0.9 SE 13 15 7 8 1018.7 1018.6 0.0
 
Date/Time
EST
Temp
°C
App
Temp
°C
Dew
Point
°C
Rel
Hum
%
Delta-T
°C
Wind Press
QNH
hPa
Press
MSL
hPa
Rain since
9am
mm
Dir  Spd
km/h
Gust
km/h
Spd
kts
Gust
kts
14/11:30pm 11.9 10.7 9.5 85 1.2 ESE 6 7 3 4 1018.8 1018.7 0.0
14/11:00pm 11.9 10.6 9.3 84 1.3 SE 6 9 3 5 1019.1 1019.0 0.0
14/10:30pm 12.5 12.4 9.3 81 1.7 CALM 0 0 0 0 1019.1 1019.0 0.0
14/10:00pm 13.4 11.7 9.8 79 1.9 E 9 11 5 6 1019.2 1019.1 0.0
14/09:30pm 13.6 11.6 10.0 79 1.9 ESE 11 11 6 6 1019.3 1019.2 0.0
14/09:00pm 13.7 12.1 8.7 72 2.6 E 7 11 4 6 1019.5 1019.4 0.0
14/08:30pm 14.8 13.1 8.5 66 3.2 NE 7 9 4 5 1019.4 1019.3 0.0
14/08:00pm 16.0 14.7 10.1 68 3.2 NE 7 9 4 5 1019.2 1019.1 0.0
14/07:30pm 16.8 15.2 10.2 65 3.6 NNE 9 11 5 6 1019.0 1018.9 0.0
14/07:00pm 17.2 15.7 10.6 65 3.6 N 9 11 5 6 1018.8 1018.7 0.0
14/06:30pm 16.6 14.6 10.0 65 3.5 N 11 13 6 7 1018.5 1018.4 0.0
14/06:00pm 17.5 15.4 9.7 60 4.2 NNW 11 13 6 7 1018.3 1018.2 0.0
14/05:30pm 19.7 18.3 9.6 52 5.5 W 7 7 4 4 1017.9 1017.9 0.0
14/05:00pm 20.8 19.5 10.0 50 5.9 W 7 9 4 5 1017.6 1017.5 0.0
14/04:30pm 23.1 21.9 10.2 44 7.2 WSW 7 11 4 6 1017.3 1017.2 0.0
14/04:00pm 23.1 21.5 10.2 44 7.2 WSW 9 11 5 6 1017.2 1017.1 0.0
14/03:30pm 23.1 22.7 9.8 43 7.4 NW 2 9 1 5 1017.2 1017.1 0.0
14/03:00pm 23.6 23.0 10.3 43 7.4 NW 4 11 2 6 1017.1 1017.0 0.0
14/02:30pm 23.7 22.4 10.0 42 7.6 N 7 13 4 7 1017.1 1017.0 0.0
14/02:00pm 23.5 21.2 10.6 44 7.3 NW 13 19 7 10 1017.4 1017.3 0.0
14/01:30pm 23.4 21.8 10.1 43 7.4 NW 9 19 5 10 1017.8 1017.8 0.0
14/01:00pm 22.8 20.5 10.3 45 7.0 W 13 22 7 12 1018.2 1018.1 0.0
14/12:30pm 23.3 21.2 11.0 46 7.0 W 13 20 7 11 1018.6 1018.5 0.0
14/12:00pm 22.5 19.5 10.6 47 6.7 WNW 17 20 9 11 1019.1 1019.0 0.0
14/11:30am 21.7 19.2 11.1 51 6.0 WNW 15 19 8 10 1019.7 1019.6 0.0
14/11:00am 21.6 18.9 11.6 53 5.7 WNW 17 22 9 12 1020.2 1020.2 0.0
14/10:30am 20.4 18.0 11.3 56 5.1 W 15 19 8 10 1020.4 1020.4 0.0
14/10:00am 19.4 17.8 11.7 61 4.3 WNW 11 15 6 8 1020.8 1020.7 0.0
14/09:30am 17.9 18.1 11.9 68 3.4 SW 2 7 1 4 1020.9 1020.8 0.0
14/09:00am 15.3 15.8 11.5 78 2.1 CALM 0 0 0 0 1021.0 1020.9 0.0
14/08:30am 13.6 14.0 11.1 85 1.3 CALM 0 0 0 0 1020.9 1020.8 0.0
14/08:00am 11.5 11.6 10.1 91 0.7 CALM 0 0 0 0 1020.6 1020.6 0.0
14/07:30am 9.9 9.7 9.1 95 0.4 CALM 0 0 0 0 1020.3 1020.3 0.0
14/07:00am 8.6 8.2 8.2 97 0.2 CALM 0 0 0 0 1020.0 1020.0 0.0
14/06:30am 8.3 7.8 8.0 98 0.1 CALM 0 0 0 0 1019.8 1019.8 0.0
14/06:00am 7.9 6.0 7.6 98 0.1 SE 7 7 4 4 1019.2 1019.1 0.0
14/05:30am 7.9 6.9 7.5 97 0.2 SE 2 9 1 5 1018.9 1018.8 0.0
14/05:00am 7.9 7.3 7.5 97 0.2 CALM 0 0 0 0 1018.7 1018.6 0.0
14/04:30am 7.9 7.3 7.3 96 0.3 CALM 0 6 0 3 1018.5 1018.4 0.0
14/04:00am 8.2 6.9 7.8 97 0.2 E 4 9 2 5 1018.4 1018.3 0.0
14/03:30am 8.4 7.8 7.5 94 0.4 CALM 0 6 0 3 1018.6 1018.5 0.0
14/03:00am 8.5 6.3 7.9 96 0.3 E 9 11 5 6 1018.4 1018.3 0.0
14/02:30am 8.6 6.7 7.5 93 0.5 ESE 7 9 4 5 1018.6 1018.5 0.0
14/02:00am 8.9 7.2 7.5 91 0.7 E 6 9 3 5 1018.8 1018.7 0.0
14/01:30am 9.2 8.7 7.8 91 0.7 CALM 0 0 0 0 1018.9 1018.8 0.0
14/01:00am 9.3 8.1 8.1 92 0.6 NNE 4 7 2 4 1019.2 1019.1 0.0
14/12:30am 9.3 7.4 7.7 90 0.8 E 7 11 4 6 1019.3 1019.2 0.0
14/12:00am 10.0 7.6 8.6 91 0.7 ESE 11 11 6 6 1019.7 1019.6 0.0
 
Date/Time
EST
Temp
°C
App
Temp
°C
Dew
Point
°C
Rel
Hum
%
Delta-T
°C
Wind Press
QNH
hPa
Press
MSL
hPa
Rain since
9am
mm
Dir  Spd
km/h
Gust
km/h
Spd
kts
Gust
kts
13/11:30pm 9.9 7.4 8.0 88 0.9 ESE 11 11 6 6 1019.8 1019.8 0.0
13/11:00pm 10.5 8.1 8.6 88 1.0 E 11 13 6 7 1020.0 1020.0 0.0
13/10:30pm 10.8 8.3 8.4 85 1.2 E 11 13 6 7 1019.9 1019.9 0.0
13/10:00pm 11.3 9.2 8.3 82 1.5 ENE 9 11 5 6 1020.2 1020.2 0.0
13/09:30pm 11.1 9.3 8.1 82 1.5 NE 7 7 4 4 1020.4 1020.4 0.0
13/09:00pm 10.5 9.9 7.6 82 1.4 CALM 0 0 0 0 1020.4 1020.4 0.0
13/08:30pm 11.2 10.8 8.2 82 1.5 CALM 0 0 0 0 1020.1 1020.1 0.0
13/08:00pm 12.5 10.9 7.8 73 2.3 NNE 6 7 3 4 1019.8 1019.8 0.0
13/07:30pm 13.1 11.3 9.4 78 1.9 NNE 9 11 5 6 1019.5 1019.4 0.0
13/07:00pm 14.0 12.1 9.2 73 2.5 NNW 9 11 5 6 1019.2 1019.1 0.0
13/06:30pm 14.0 11.7 9.0 72 2.6 N 11 13 6 7 1018.8 1018.7 0.0
13/06:00pm 16.3 14.0 9.0 62 3.8 NW 11 11 6 6 1018.9 1018.8 0.0
13/05:30pm 17.7 15.6 9.6 59 4.3 W 11 15 6 8 1019.4 1019.3 0.0
13/05:00pm 19.6 16.7 9.8 53 5.3 W 15 17 8 9 1019.0 1018.9 0.0
13/04:30pm 21.2 17.4 9.8 48 6.3 W 20 26 11 14 1018.8 1018.7 0.0
13/04:00pm 22.1 18.2 9.3 44 7.0 W 20 30 11 16 1018.5 1018.4 0.0
13/03:30pm 22.6 18.9 9.4 43 7.2 WNW 19 26 10 14 1018.4 1018.3 0.0
13/03:00pm 22.4 19.0 9.2 43 7.2 WNW 17 24 9 13 1018.3 1018.2 0.0
13/02:30pm 22.6 18.8 9.7 44 7.1 WNW 20 26 11 14 1018.5 1018.4 0.0
13/02:00pm 22.0 18.2 9.2 44 7.0 WNW 19 28 10 15 1018.9 1018.8 0.0
13/01:30pm 21.7 18.0 9.6 46 6.6 WNW 19 26 10 14 1018.8 1018.7 0.0
13/01:00pm 21.5 17.9 10.0 48 6.3 WNW 19 28 10 15 1019.2 1019.1 0.0
13/12:30pm 21.0 17.7 10.8 52 5.7 W 19 28 10 15 1020.1 1020.1 0.0
13/12:00pm 20.4 17.1 10.8 54 5.3 W 19 26 10 14 1020.8 1020.7 0.0
13/11:30am 20.5 18.1 11.4 56 5.1 W 15 20 8 11 1021.6 1021.5 0.0
13/11:00am 20.0 18.0 11.5 58 4.8 W 13 19 7 10 1022.0 1022.0 0.0

Latest Capital City Observations: Canberra | Sydney | Melbourne | Brisbane | Adelaide | Perth | Hobart | Darwin

Other formats

Comma delimited format used in spreadsheet applications
http://www.bom.gov.au/fwo/IDQ60901/IDQ60901.94552.axf

JavaScript Object Notation format (JSON) in row-major order
http://www.bom.gov.au/fwo/IDQ60901/IDQ60901.94552.json

Data quality

Most of these data are generated automatically and are frequently updated. Quality checks on data are not normally performed. It is possible for incorrect values to appear. Refer to information at About Latest Weather Observations and please check the disclaimer before using these data.